createdAt,value
2018-08-04T00:00:33.695Z,86.00
2018-08-04T00:03:01.934Z,86.10
2018-08-04T00:05:30.357Z,85.90
2018-08-04T00:07:58.550Z,85.50
2018-08-04T00:10:26.775Z,85.80
2018-08-04T00:12:55.021Z,85.60
2018-08-04T00:15:23.218Z,85.70
2018-08-04T00:17:51.453Z,85.90
2018-08-04T00:20:19.657Z,86.10
2018-08-04T00:22:47.905Z,86.20
2018-08-04T00:25:16.186Z,86.10
2018-08-04T00:27:44.424Z,86.30
2018-08-04T00:30:13.769Z,86.40
2018-08-04T00:32:42.651Z,86.50
2018-08-04T00:35:11.444Z,86.50
2018-08-04T00:37:39.709Z,86.60
2018-08-04T00:40:10.108Z,86.60
2018-08-04T00:42:38.332Z,86.80
2018-08-04T00:47:35.726Z,87.00
2018-08-04T00:50:04.439Z,87.10
2018-08-04T00:52:32.704Z,87.20
2018-08-04T00:55:00.976Z,87.40
2018-08-04T00:57:29.163Z,87.30
2018-08-04T00:59:57.643Z,87.20
2018-08-04T01:02:25.841Z,87.30
2018-08-04T01:04:55.136Z,87.30
2018-08-04T01:07:23.384Z,88.10
2018-08-04T01:09:51.630Z,87.70
2018-08-04T01:12:19.829Z,88.00
2018-08-04T01:14:48.230Z,88.10
2018-08-04T01:17:16.457Z,88.00
2018-08-04T01:19:44.625Z,87.90
2018-08-04T01:22:12.859Z,87.90
2018-08-04T01:24:42.094Z,87.90
2018-08-04T01:27:10.287Z,87.80
2018-08-04T01:29:38.551Z,87.70
2018-08-04T01:32:06.783Z,87.70
2018-08-04T01:34:34.968Z,88.00
2018-08-04T01:37:03.179Z,88.20
2018-08-04T01:39:31.393Z,88.30
2018-08-04T01:41:59.602Z,88.60
2018-08-04T01:44:27.806Z,88.80
2018-08-04T01:46:55.971Z,88.70
2018-08-04T01:49:24.182Z,88.70
2018-08-04T01:51:52.398Z,88.80
2018-08-04T01:54:20.815Z,88.70
2018-08-04T01:56:49.078Z,88.70
2018-08-04T01:59:17.368Z,88.60
2018-08-04T02:01:45.536Z,88.30
2018-08-04T02:04:13.979Z,88.10
2018-08-04T02:06:42.172Z,88.10
2018-08-04T02:09:11.143Z,88.10
2018-08-04T02:11:39.385Z,88.40
2018-08-04T02:14:07.596Z,88.50
2018-08-04T02:16:35.785Z,88.80
2018-08-04T02:19:04.037Z,89.00
2018-08-04T02:21:32.224Z,89.20
2018-08-04T02:24:00.531Z,89.20
2018-08-04T02:26:28.782Z,89.20
2018-08-04T02:28:57.093Z,89.30
2018-08-04T02:31:25.329Z,89.80
2018-08-04T02:33:53.542Z,90.10
2018-08-04T02:36:21.717Z,90.20
2018-08-04T02:38:49.888Z,90.40
2018-08-04T02:41:18.127Z,90.60
2018-08-04T02:43:46.531Z,90.60
2018-08-04T02:46:14.819Z,90.60
2018-08-04T02:48:43.036Z,90.50
2018-08-04T02:51:11.978Z,90.60
2018-08-04T02:53:40.469Z,90.60
2018-08-04T02:56:08.706Z,90.50
2018-08-04T02:58:36.935Z,90.60
2018-08-04T03:01:05.188Z,90.70
2018-08-04T03:03:33.410Z,90.80
2018-08-04T03:06:01.612Z,91.30
2018-08-04T03:08:29.947Z,91.70
2018-08-04T03:10:58.046Z,92.00
2018-08-04T03:13:26.414Z,92.10
2018-08-04T03:15:54.670Z,92.20
2018-08-04T03:18:22.862Z,92.30
2018-08-04T03:20:51.070Z,92.40
2018-08-04T03:23:19.252Z,92.40
2018-08-04T03:25:47.459Z,92.30
2018-08-04T03:28:15.742Z,92.10
2018-08-04T03:30:43.977Z,92.00
2018-08-04T03:33:12.179Z,92.00
2018-08-04T03:35:40.517Z,92.10
2018-08-04T03:38:08.766Z,92.20
2018-08-04T03:40:36.961Z,92.20
2018-08-04T03:43:05.244Z,92.20
2018-08-04T03:45:33.555Z,92.40
2018-08-04T03:48:01.807Z,92.00
2018-08-04T03:50:30.160Z,91.90
2018-08-04T03:52:58.405Z,91.90
2018-08-04T03:55:26.792Z,91.90
2018-08-04T03:57:55.207Z,91.90
2018-08-04T04:00:23.465Z,91.90
2018-08-04T04:02:51.646Z,91.80
2018-08-04T04:05:20.002Z,91.90
2018-08-04T04:07:48.220Z,92.00
2018-08-04T04:10:16.611Z,92.10
2018-08-04T04:12:44.815Z,92.10
2018-08-04T04:15:13.040Z,92.30
2018-08-04T04:17:48.096Z,92.30
2018-08-04T04:20:17.981Z,92.50
2018-08-04T04:22:46.168Z,93.00
2018-08-04T04:25:14.393Z,93.40
2018-08-04T04:27:43.124Z,93.50
2018-08-04T04:30:11.456Z,93.60
2018-08-04T04:32:39.682Z,93.60
2018-08-04T04:35:07.947Z,93.70
2018-08-04T04:37:36.132Z,93.60
2018-08-04T04:40:05.190Z,93.50
2018-08-04T04:42:33.315Z,93.40
2018-08-04T04:45:01.636Z,93.30
2018-08-04T04:47:29.798Z,93.40
2018-08-04T04:49:57.982Z,93.50
2018-08-04T04:52:26.211Z,93.50
2018-08-04T04:54:54.434Z,93.30
2018-08-04T04:57:22.682Z,93.20
2018-08-04T04:59:50.896Z,93.10
2018-08-04T05:02:19.095Z,93.00
2018-08-04T05:04:47.373Z,92.80
2018-08-04T05:07:15.602Z,92.60
2018-08-04T05:09:43.797Z,92.40
2018-08-04T05:12:11.979Z,92.30
2018-08-04T05:14:40.280Z,92.00
2018-08-04T05:17:08.470Z,91.80
2018-08-04T05:19:36.649Z,91.40
2018-08-04T05:22:04.823Z,91.10
2018-08-04T05:24:33.034Z,90.80
2018-08-04T05:27:01.199Z,90.60
2018-08-04T05:29:29.409Z,90.50
2018-08-04T05:31:57.613Z,90.20
2018-08-04T05:34:25.914Z,89.50
2018-08-04T05:36:54.098Z,88.80
2018-08-04T05:39:22.377Z,88.10
2018-08-04T05:41:50.594Z,87.20
2018-08-04T05:44:18.960Z,86.50
2018-08-04T05:46:47.205Z,85.30
2018-08-04T05:49:15.390Z,84.30
2018-08-04T05:51:43.595Z,84.10
2018-08-04T05:54:11.832Z,83.70
2018-08-04T05:56:40.074Z,83.90
2018-08-04T05:59:08.333Z,84.90
2018-08-04T06:01:36.543Z,86.70
2018-08-04T06:04:05.837Z,87.50
2018-08-04T06:06:34.001Z,87.70
2018-08-04T06:09:02.176Z,87.20
2018-08-04T06:11:30.328Z,86.80
2018-08-04T06:13:58.573Z,85.50
2018-08-04T06:16:26.744Z,84.30
2018-08-04T06:18:54.941Z,84.20
2018-08-04T06:21:23.139Z,84.20
2018-08-04T06:23:51.373Z,84.10
2018-08-04T06:26:19.590Z,85.00
2018-08-04T06:28:47.734Z,87.60
2018-08-04T06:31:15.945Z,89.20
2018-08-04T06:33:44.274Z,90.30
2018-08-04T06:36:12.629Z,92.80
2018-08-04T06:38:40.784Z,93.70
2018-08-04T06:41:09.045Z,93.80
2018-08-04T06:43:37.367Z,93.70
2018-08-04T06:46:05.892Z,93.10
2018-08-04T06:48:34.136Z,92.90
2018-08-04T06:51:02.370Z,92.50
2018-08-04T06:53:30.526Z,92.60
2018-08-04T06:55:58.744Z,92.30
2018-08-04T06:58:26.988Z,92.40
2018-08-04T07:00:55.139Z,92.10
2018-08-04T07:03:23.339Z,91.70
2018-08-04T07:05:51.552Z,91.70
2018-08-04T07:08:19.791Z,91.80
2018-08-04T07:10:48.234Z,91.00
2018-08-04T07:13:16.457Z,90.80
2018-08-04T07:15:44.623Z,90.80
2018-08-04T07:18:12.784Z,91.20
2018-08-04T07:20:40.967Z,90.80
2018-08-04T07:23:09.141Z,91.20
2018-08-04T07:25:37.432Z,91.30
2018-08-04T07:28:05.783Z,90.90
2018-08-04T07:30:33.949Z,90.60
2018-08-04T07:33:02.142Z,90.50
2018-08-04T07:35:31.499Z,90.70
2018-08-04T07:37:59.730Z,91.90
2018-08-04T07:40:27.972Z,92.20
2018-08-04T07:42:56.124Z,92.70
2018-08-04T07:45:24.459Z,93.00
2018-08-04T07:47:52.621Z,93.20
2018-08-04T07:50:20.842Z,93.00
2018-08-04T07:52:49.090Z,92.70
2018-08-04T07:55:17.363Z,92.50
2018-08-04T07:57:45.571Z,92.80
2018-08-04T08:00:13.802Z,92.70
2018-08-04T08:02:41.985Z,92.30
2018-08-04T08:05:10.294Z,90.90
2018-08-04T08:07:38.503Z,91.30
2018-08-04T08:10:06.719Z,90.50
2018-08-04T08:12:34.903Z,91.30
2018-08-04T08:15:03.245Z,90.90
2018-08-04T08:17:31.422Z,91.20
2018-08-04T08:19:59.624Z,91.00
2018-08-04T08:22:41.575Z,91.10
2018-08-04T08:25:10.458Z,89.30
2018-08-04T08:27:38.892Z,88.70
2018-08-04T08:30:09.077Z,90.40
2018-08-04T08:32:37.387Z,90.80
2018-08-04T08:35:05.911Z,88.40
2018-08-04T08:37:34.530Z,88.80
2018-08-04T08:40:02.782Z,88.20
2018-08-04T08:42:30.987Z,88.70
2018-08-04T08:45:00.547Z,90.10
2018-08-04T08:47:28.751Z,90.00
2018-08-04T08:49:57.095Z,87.30
2018-08-04T08:52:25.400Z,89.10
2018-08-04T08:54:53.919Z,88.20
2018-08-04T08:57:22.147Z,88.30
2018-08-04T08:59:50.316Z,84.30
2018-08-04T09:02:18.509Z,84.70
2018-08-04T09:04:46.860Z,86.20
2018-08-04T09:07:15.101Z,87.70
2018-08-04T09:09:43.275Z,85.10
2018-08-04T09:12:11.542Z,87.10
2018-08-04T09:14:39.790Z,85.80
2018-08-04T09:17:08.013Z,86.50
2018-08-04T09:19:36.226Z,87.50
2018-08-04T09:22:04.435Z,85.80
2018-08-04T09:24:33.697Z,84.70
2018-08-04T09:27:01.979Z,85.80
2018-08-04T09:29:30.169Z,83.00
2018-08-04T09:34:34.122Z,82.00
2018-08-04T09:37:02.387Z,84.90
2018-08-04T09:39:30.601Z,84.90
2018-08-04T09:41:58.789Z,84.20
2018-08-04T09:44:27.059Z,85.10
2018-08-04T09:46:55.239Z,85.70
2018-08-04T09:49:23.453Z,86.50
2018-08-04T09:51:51.639Z,87.60
2018-08-04T09:54:19.974Z,85.60
2018-08-04T09:56:48.195Z,85.80
2018-08-04T09:59:16.402Z,87.50
2018-08-04T10:01:44.609Z,88.80
2018-08-04T10:04:12.840Z,89.50
2018-08-04T10:06:41.070Z,89.50
2018-08-04T10:09:10.529Z,89.40
2018-08-04T10:11:38.729Z,89.50
2018-08-04T10:14:07.018Z,89.60
2018-08-04T10:16:35.225Z,89.90
2018-08-04T10:19:03.463Z,89.90
2018-08-04T10:21:31.703Z,90.40
2018-08-04T10:23:59.905Z,88.80
2018-08-04T10:26:28.083Z,90.10
2018-08-04T10:28:56.292Z,90.10
2018-08-04T10:31:24.509Z,90.10
2018-08-04T10:33:52.817Z,90.40
2018-08-04T10:36:21.016Z,90.10
2018-08-04T10:38:49.257Z,90.70
2018-08-04T10:41:17.446Z,88.90
2018-08-04T10:43:45.714Z,89.70
2018-08-04T10:46:13.992Z,90.10
2018-08-04T10:48:42.194Z,90.70
2018-08-04T10:51:10.431Z,90.50
2018-08-04T10:53:38.664Z,90.30
2018-08-04T10:56:06.801Z,90.20
2018-08-04T10:58:34.952Z,90.60
2018-08-04T11:01:03.189Z,90.40
2018-08-04T11:03:31.466Z,90.70
2018-08-04T11:05:59.633Z,90.70
2018-08-04T11:08:27.832Z,91.00
2018-08-04T11:10:56.035Z,90.70
2018-08-04T11:13:24.378Z,90.10
2018-08-04T11:15:52.545Z,90.50
2018-08-04T11:18:20.715Z,90.70
2018-08-04T11:20:48.960Z,90.90
2018-08-04T11:23:18.489Z,91.20
2018-08-04T11:25:46.709Z,91.10
2018-08-04T11:28:14.903Z,91.00
2018-08-04T11:30:43.189Z,90.70
2018-08-04T11:33:11.313Z,90.70
2018-08-04T11:35:52.904Z,90.90
2018-08-04T11:38:21.193Z,91.50
2018-08-04T11:40:49.424Z,91.60
2018-08-04T11:43:17.621Z,91.60
2018-08-04T11:45:46.080Z,91.70
2018-08-04T11:48:14.298Z,91.20
2018-08-04T11:50:42.510Z,90.80
2018-08-04T11:53:10.746Z,91.50
2018-08-04T11:55:38.892Z,91.40
2018-08-04T11:58:07.078Z,91.50
2018-08-04T12:00:35.256Z,91.40
2018-08-04T12:03:03.468Z,91.50
2018-08-04T12:05:31.920Z,91.20
2018-08-04T12:08:00.020Z,91.10
2018-08-04T12:10:28.285Z,91.30
2018-08-04T12:12:56.508Z,91.10
2018-08-04T12:15:24.797Z,90.50
2018-08-04T12:17:53.031Z,90.30
2018-08-04T12:20:21.273Z,91.20
2018-08-04T12:22:49.472Z,91.30
2018-08-04T12:25:18.873Z,90.90
2018-08-04T12:27:47.049Z,90.70
2018-08-04T12:30:15.192Z,90.40
2018-08-04T12:32:43.403Z,91.00
2018-08-04T12:35:12.595Z,90.70
2018-08-04T12:37:40.844Z,90.60
2018-08-04T12:40:09.035Z,91.20
2018-08-04T12:42:37.267Z,91.20
2018-08-04T12:45:05.874Z,90.20
2018-08-04T12:47:34.055Z,90.80
2018-08-04T12:50:02.218Z,90.80
2018-08-04T12:52:30.434Z,91.00
2018-08-04T12:54:59.815Z,90.80
2018-08-04T12:57:28.003Z,90.90
2018-08-04T12:59:56.290Z,91.10
2018-08-04T13:02:24.461Z,91.00
2018-08-04T13:04:52.736Z,91.20
2018-08-04T13:07:21.030Z,90.60
2018-08-04T13:09:49.212Z,90.70
2018-08-04T13:12:17.424Z,90.10
2018-08-04T13:14:45.805Z,89.60
2018-08-04T13:17:14.010Z,89.50
2018-08-04T13:19:42.200Z,90.00
2018-08-04T13:22:10.421Z,90.00
2018-08-04T13:24:38.717Z,89.40
2018-08-04T13:27:07.107Z,89.30
2018-08-04T13:29:35.283Z,90.10
2018-08-04T13:32:03.509Z,89.30
2018-08-04T13:34:31.706Z,89.30
2018-08-04T13:36:59.956Z,88.50
2018-08-04T13:39:28.152Z,89.70
2018-08-04T13:41:56.361Z,89.30
2018-08-04T13:44:25.739Z,90.50
2018-08-04T13:46:53.997Z,90.60
2018-08-04T13:49:22.199Z,91.40
2018-08-04T13:51:50.373Z,91.30
2018-08-04T13:54:18.575Z,91.30
2018-08-04T13:56:46.766Z,90.90
2018-08-04T13:59:14.961Z,90.70
2018-08-04T14:01:43.166Z,90.50
2018-08-04T14:04:12.044Z,90.50
2018-08-04T14:06:40.299Z,91.00
2018-08-04T14:09:09.736Z,91.20
2018-08-04T14:11:37.933Z,91.20
2018-08-04T14:14:06.367Z,90.60
2018-08-04T14:16:34.551Z,90.70
2018-08-04T14:19:02.788Z,90.40
2018-08-04T14:21:31.349Z,90.50
2018-08-04T14:23:59.814Z,90.40
2018-08-04T14:26:28.072Z,90.90
2018-08-04T14:28:56.215Z,90.30
2018-08-04T14:31:24.419Z,90.20
2018-08-04T14:33:52.605Z,90.50
2018-08-04T14:36:20.856Z,90.90
2018-08-04T14:38:49.010Z,91.10
2018-08-04T14:41:17.187Z,91.00
2018-08-04T14:43:45.448Z,91.10
2018-08-04T14:46:13.668Z,90.70
2018-08-04T14:48:41.897Z,91.10
2018-08-04T14:51:10.140Z,91.30
2018-08-04T14:53:38.409Z,91.40
2018-08-04T14:56:06.638Z,91.70
2018-08-04T14:58:34.810Z,91.70
2018-08-04T15:01:02.995Z,91.80
2018-08-04T15:03:31.331Z,91.70
2018-08-04T15:05:59.538Z,92.00
2018-08-04T15:08:27.716Z,92.40
2018-08-04T15:10:55.906Z,92.70
2018-08-04T15:13:24.090Z,92.80
2018-08-04T15:15:52.317Z,92.60
2018-08-04T15:18:20.537Z,92.10
2018-08-04T15:20:48.711Z,92.20
2018-08-04T15:23:16.952Z,92.50
2018-08-04T15:25:45.127Z,91.70
2018-08-04T15:28:13.333Z,90.60
2018-08-04T15:30:41.578Z,90.40
2018-08-04T15:33:09.828Z,90.60
2018-08-04T15:35:38.189Z,90.70
2018-08-04T15:38:06.369Z,90.70
2018-08-04T15:40:34.660Z,91.10
2018-08-04T15:43:02.830Z,91.30
2018-08-04T15:45:32.275Z,91.40
2018-08-04T15:48:00.459Z,91.40
2018-08-04T15:50:28.658Z,91.40
2018-08-04T15:52:56.875Z,91.20
2018-08-04T15:55:25.112Z,91.50
2018-08-04T15:57:53.322Z,91.20
2018-08-04T16:00:21.540Z,91.50
2018-08-04T16:02:49.799Z,91.70
2018-08-04T16:05:18.099Z,91.60
2018-08-04T16:07:46.306Z,91.70
2018-08-04T16:10:14.501Z,91.40
2018-08-04T16:12:42.743Z,91.90
2018-08-04T16:15:11.118Z,92.30
2018-08-04T16:17:39.308Z,92.40
2018-08-04T16:20:13.368Z,92.30
2018-08-04T16:22:41.636Z,91.80
2018-08-04T16:25:09.989Z,92.00
2018-08-04T16:27:38.182Z,91.70
2018-08-04T16:30:07.663Z,92.00
2018-08-04T16:32:35.847Z,91.90
2018-08-04T16:35:04.663Z,91.90
2018-08-04T16:37:32.887Z,92.40
2018-08-04T16:40:01.150Z,92.10
2018-08-04T16:42:29.352Z,92.20
2018-08-04T16:44:57.620Z,92.30
2018-08-04T16:47:25.878Z,92.20
2018-08-04T16:49:54.111Z,91.90
2018-08-04T16:52:22.353Z,92.00
2018-08-04T16:54:50.728Z,92.10
2018-08-04T16:57:19.454Z,92.00
2018-08-04T16:59:47.679Z,91.30
2018-08-04T17:02:15.852Z,91.40
2018-08-04T17:04:44.301Z,91.30
2018-08-04T17:07:12.599Z,91.30
2018-08-04T17:09:40.841Z,91.70
2018-08-04T17:12:09.038Z,92.00
2018-08-04T17:14:37.268Z,92.00
2018-08-04T17:17:05.471Z,91.60
2018-08-04T17:19:33.651Z,91.20
2018-08-04T17:22:01.843Z,90.90
2018-08-04T17:24:30.160Z,91.10
2018-08-04T17:26:58.384Z,91.70
2018-08-04T17:29:26.598Z,91.20
2018-08-04T17:31:54.922Z,91.20
2018-08-04T17:34:23.049Z,90.90
2018-08-04T17:36:51.241Z,90.90
2018-08-04T17:39:19.389Z,91.30
2018-08-04T17:41:47.642Z,91.00
2018-08-04T17:44:15.924Z,90.80
2018-08-04T17:46:44.119Z,90.80
2018-08-04T17:49:12.456Z,90.90
2018-08-04T17:51:40.777Z,90.80
2018-08-04T17:54:09.098Z,90.80
2018-08-04T17:56:37.293Z,91.00
2018-08-04T17:59:05.521Z,91.00
2018-08-04T18:01:33.723Z,91.10
2018-08-04T18:04:01.942Z,90.80
2018-08-04T18:06:30.259Z,91.00
2018-08-04T18:08:58.686Z,91.20
2018-08-04T18:11:26.899Z,91.40
2018-08-04T18:13:55.160Z,91.60
2018-08-04T18:16:23.341Z,91.70
2018-08-04T18:18:51.575Z,91.90
2018-08-04T18:21:19.845Z,92.00
2018-08-04T18:23:48.179Z,92.10
2018-08-04T18:26:16.467Z,92.00
2018-08-04T18:28:44.670Z,92.10
2018-08-04T18:31:13.101Z,92.10
2018-08-04T18:33:41.458Z,92.20
2018-08-04T18:36:09.669Z,92.30
2018-08-04T18:38:37.869Z,92.30
2018-08-04T18:41:06.094Z,92.10
2018-08-04T18:43:34.355Z,92.00
2018-08-04T18:46:02.564Z,91.90
2018-08-04T18:48:30.812Z,91.80
2018-08-04T18:50:59.007Z,92.00
2018-08-04T18:53:27.258Z,92.10
2018-08-04T18:55:55.507Z,92.20
2018-08-04T18:58:23.717Z,92.30
2018-08-04T19:00:58.392Z,92.40
2018-08-04T19:03:26.849Z,92.50
2018-08-04T19:05:55.132Z,92.50
2018-08-04T19:08:23.409Z,92.60
2018-08-04T19:10:51.667Z,92.70
2018-08-04T19:13:19.861Z,92.80
2018-08-04T19:15:48.165Z,92.70
2018-08-04T19:18:16.345Z,92.60
2018-08-04T19:20:44.501Z,92.60
2018-08-04T19:23:12.727Z,92.60
2018-08-04T19:25:41.311Z,92.60
2018-08-04T19:28:09.700Z,92.60
2018-08-04T19:30:38.610Z,92.70
2018-08-04T19:33:06.974Z,93.10
2018-08-04T19:35:35.366Z,93.30
2018-08-04T19:38:03.638Z,93.50
2018-08-04T19:40:31.921Z,93.60
2018-08-04T19:43:00.169Z,93.50
2018-08-04T19:45:28.475Z,93.50
2018-08-04T19:47:56.721Z,93.30
2018-08-04T19:50:24.922Z,93.30
2018-08-04T19:52:53.142Z,93.10
2018-08-04T19:55:21.534Z,93.10
2018-08-04T19:57:49.805Z,93.20
2018-08-04T20:00:18.963Z,93.50
2018-08-04T20:02:47.180Z,93.60
2018-08-04T20:05:15.450Z,93.70
2018-08-04T20:07:43.660Z,93.60
2018-08-04T20:10:11.866Z,93.60
2018-08-04T20:12:40.134Z,93.70
2018-08-04T20:15:09.468Z,93.80
2018-08-04T20:17:37.693Z,93.80
2018-08-04T20:20:06.874Z,93.80
2018-08-04T20:22:35.126Z,93.70
2018-08-04T20:25:03.550Z,93.80
2018-08-04T20:27:31.941Z,93.90
2018-08-04T20:30:00.159Z,94.10
2018-08-04T20:32:28.340Z,94.20
2018-08-04T20:34:56.642Z,94.30
2018-08-04T20:37:24.831Z,94.40
2018-08-04T20:39:53.038Z,94.60
2018-08-04T20:42:21.287Z,94.60
2018-08-04T20:44:49.768Z,94.60
2018-08-04T20:47:18.985Z,94.70
2018-08-04T20:49:47.328Z,94.90
2018-08-04T20:52:15.577Z,95.10
2018-08-04T20:54:43.851Z,95.20
2018-08-04T20:57:12.048Z,95.30
2018-08-04T20:59:40.233Z,95.30
2018-08-04T21:02:08.474Z,95.20
2018-08-04T21:04:37.069Z,95.00
2018-08-04T21:07:06.001Z,95.20
2018-08-04T21:09:34.224Z,95.50
2018-08-04T21:12:02.728Z,95.60
2018-08-04T21:14:30.981Z,95.60
2018-08-04T21:16:59.708Z,95.60
2018-08-04T21:19:28.127Z,95.60
2018-08-04T21:21:56.293Z,95.70
2018-08-04T21:27:24.978Z,95.80
2018-08-04T21:29:53.174Z,95.70
2018-08-04T21:32:21.442Z,95.70
2018-08-04T21:34:50.822Z,95.70
2018-08-04T21:37:19.059Z,95.70
2018-08-04T21:39:47.232Z,95.70
2018-08-04T21:42:15.464Z,95.90
2018-08-04T21:44:43.657Z,96.10
2018-08-04T21:47:11.831Z,96.20
2018-08-04T21:49:40.006Z,96.10
2018-08-04T21:52:08.301Z,96.30
2018-08-04T21:54:36.438Z,96.20
2018-08-04T21:57:04.598Z,96.30
2018-08-04T21:59:32.892Z,96.40
2018-08-04T22:02:01.166Z,96.50
2018-08-04T22:04:29.244Z,96.30
2018-08-04T22:08:06.672Z,96.40
2018-08-04T22:10:34.899Z,96.50
2018-08-04T22:13:03.228Z,96.30
2018-08-04T22:15:32.470Z,96.40
2018-08-04T22:18:00.695Z,96.30
2018-08-04T22:20:29.412Z,96.30
2018-08-04T22:22:57.615Z,96.30
2018-08-04T22:25:27.358Z,96.40
2018-08-04T22:27:56.099Z,96.60
2018-08-04T22:30:24.694Z,96.50
2018-08-04T22:32:53.132Z,96.20
2018-08-04T22:35:21.789Z,96.30
2018-08-04T22:37:50.122Z,96.20
2018-08-04T22:40:19.223Z,96.20
2018-08-04T22:42:47.385Z,96.20
2018-08-04T22:46:09.575Z,96.10
2018-08-04T22:48:37.823Z,96.20
2018-08-04T22:51:06.104Z,96.60
2018-08-04T22:53:34.633Z,96.40
2018-08-04T22:56:02.825Z,96.40
2018-08-04T22:58:31.064Z,96.20
2018-08-04T23:00:59.307Z,96.20
2018-08-04T23:03:27.494Z,96.30
2018-08-04T23:05:55.726Z,96.40
2018-08-04T23:08:23.953Z,96.40
2018-08-04T23:10:52.190Z,96.50
2018-08-04T23:13:20.369Z,96.90
2018-08-04T23:15:48.679Z,97.20
2018-08-04T23:21:16.781Z,97.30
2018-08-04T23:23:45.123Z,97.00
2018-08-04T23:26:13.315Z,96.50
2018-08-04T23:28:41.516Z,96.50
2018-08-04T23:31:09.718Z,96.50
2018-08-04T23:33:38.106Z,96.20
2018-08-04T23:36:06.295Z,96.20
2018-08-04T23:38:34.452Z,96.10
2018-08-04T23:41:02.652Z,96.30
2018-08-04T23:43:32.003Z,96.30
2018-08-04T23:46:00.258Z,96.30
2018-08-04T23:48:28.484Z,96.20
2018-08-04T23:50:56.722Z,96.10
2018-08-04T23:53:25.106Z,96.10
2018-08-04T23:55:53.315Z,96.10
2018-08-04T23:58:21.488Z,95.80
